Time;durP1;ratioP1;P1;durP2;ratioP2;P2;SDS_P1;SDS_P2;PMS_P1;PMS_P2;Temp;Humidity;BMP_temperature;BMP_pressure;BME280_temperature;BME280_humidity;BME280_pressure;Samples;Min_cycle;Max_cycle;Signal;HPM_P1;HPM_P2
2022/04/14 00:02:18;;;;;;;4.40;3.77;;;;;;;;;;7369237;19;20410;-75
2022/04/14 00:04:50;;;;;;;7.57;4.10;;;;;;;;;;7365967;19;20376;-75
2022/04/14 00:07:24;;;;;;;4.83;3.20;;;;;;;;;;7371830;19;21092;-76
2022/04/14 00:09:53;;;;;;;4.20;3.30;;;;;;;;;;7366108;19;20388;-76
2022/04/14 00:12:25;;;;;;;8.67;4.50;;;;;;;;;;7372759;19;20411;-76
2022/04/14 00:15:00;;;;;;;5.70;4.00;;;;;;;;;;7368697;19;20438;-75
2022/04/14 00:17:35;;;;;;;6.80;3.60;;;;;;;;;;7371065;19;20411;-76
2022/04/14 00:20:05;;;;;;;5.50;3.37;;;;;;;;;;7369709;19;20905;-75
2022/04/14 00:22:35;;;;;;;8.53;4.80;;;;;;;;;;7364671;19;21189;-76
2022/04/14 00:25:10;;;;;;;6.23;3.83;;;;;;;;;;7367987;19;20453;-75
2022/04/14 00:27:42;;;;;;;5.83;3.80;;;;;;;;;;7367509;19;20412;-74
2022/04/14 00:30:19;;;;;;;6.70;3.27;;;;;;;;;;7364928;19;21235;-74
2022/04/14 00:32:48;;;;;;;5.40;3.40;;;;;;;;;;7370026;19;20400;-76
2022/04/14 00:35:20;;;;;;;6.30;3.90;;;;;;;;;;7365798;19;20493;-74
2022/04/14 00:37:52;;;;;;;7.20;4.03;;;;;;;;;;7374842;19;20404;-74
2022/04/14 00:40:22;;;;;;;5.70;3.23;;;;;;;;;;7378470;19;20402;-77
2022/04/14 00:42:53;;;;;;;6.97;3.73;;;;;;;;;;7378812;19;20380;-76
2022/04/14 00:45:28;;;;;;;4.07;3.47;;;;;;;;;;7378309;19;20375;-76
2022/04/14 00:48:00;;;;;;;4.50;3.50;;;;;;;;;;7375306;19;20382;-78
2022/04/14 00:50:32;;;;;;;6.10;3.60;;;;;;;;;;7394831;19;20408;-79
2022/04/14 00:53:07;;;;;;;7.90;4.00;;;;;;;;;;7415284;19;20451;-79
2022/04/14 00:55:39;;;;;;;6.50;4.40;;;;;;;;;;7417143;19;20434;-80
2022/04/14 00:58:10;;;;;;;10.63;5.50;;;;;;;;;;7417518;19;20440;-80
2022/04/14 01:00:43;;;;;;;5.73;4.00;;;;;;;;;;7420584;19;20400;-80
2022/04/14 01:03:15;;;;;;;6.53;4.90;;;;;;;;;;7407959;19;20427;-80
2022/04/14 01:05:45;;;;;;;7.00;3.90;;;;;;;;;;7417252;19;20369;-81
2022/04/14 01:08:19;;;;;;;6.07;4.60;;;;;;;;;;7421623;19;20396;-80
2022/04/14 01:10:50;;;;;;;10.13;4.93;;;;;;;;;;7417750;19;20397;-80
2022/04/14 01:13:22;;;;;;;5.80;4.57;;;;;;;;;;7420259;19;20392;-80
2022/04/14 01:16:02;;;;;;;6.57;4.07;;;;;;;;;;7419917;19;20361;-80
2022/04/14 01:18:34;;;;;;;9.03;4.10;;;;;;;;;;7419863;19;20365;-79
2022/04/14 01:21:03;;;;;;;10.90;4.80;;;;;;;;;;7413393;19;20388;-80
2022/04/14 01:23:43;;;;;;;8.30;4.80;;;;;;;;;;7388046;19;20381;-80
2022/04/14 01:26:17;;;;;;;9.43;4.37;;;;;;;;;;7391464;19;20384;-80
2022/04/14 01:28:49;;;;;;;7.60;4.30;;;;;;;;;;7384724;19;20412;-80
2022/04/14 01:31:23;;;;;;;7.03;3.90;;;;;;;;;;7381164;19;20423;-80
2022/04/14 01:33:53;;;;;;;9.03;4.00;;;;;;;;;;7384010;19;20408;-80
2022/04/14 01:36:24;;;;;;;6.43;4.30;;;;;;;;;;7383108;19;20444;-79
2022/04/14 01:38:59;;;;;;;6.40;4.00;;;;;;;;;;7379166;19;20410;-79
2022/04/14 01:41:31;;;;;;;9.13;3.93;;;;;;;;;;7381655;19;20463;-79
2022/04/14 01:44:01;;;;;;;6.20;3.83;;;;;;;;;;7380688;19;20412;-81
2022/04/14 01:46:30;;;;;;;6.63;4.13;;;;;;;;;;7376589;19;20423;-80
2022/04/14 01:49:02;;;;;;;6.43;3.50;;;;;;;;;;7376730;19;20419;-79
2022/04/14 01:51:32;;;;;;;6.70;3.93;;;;;;;;;;7378121;19;20932;-80
2022/04/14 01:54:04;;;;;;;6.97;3.40;;;;;;;;;;7375664;19;21227;-80
2022/04/14 01:56:38;;;;;;;4.73;3.40;;;;;;;;;;7378191;19;20395;-80
2022/04/14 01:59:10;;;;;;;4.90;3.27;;;;;;;;;;7378472;19;20431;-80
2022/04/14 02:01:40;;;;;;;5.87;2.87;;;;;;;;;;7371194;19;20388;-76
2022/04/14 02:04:14;;;;;;;5.57;3.50;;;;;;;;;;7370127;19;20435;-77
2022/04/14 02:06:44;;;;;;;6.93;3.03;;;;;;;;;;7372518;19;20412;-75
2022/04/14 02:09:21;;;;;;;5.43;2.53;;;;;;;;;;7371528;19;20367;-76
2022/04/14 02:11:55;;;;;;;6.93;3.37;;;;;;;;;;7369878;19;20409;-77
2022/04/14 02:14:27;;;;;;;7.50;3.10;;;;;;;;;;7371739;19;21163;-76
2022/04/14 02:17:01;;;;;;;8.50;4.73;;;;;;;;;;7368543;19;21291;-76
2022/04/14 02:19:31;;;;;;;6.93;3.00;;;;;;;;;;7369811;19;20420;-75
2022/04/14 02:22:03;;;;;;;5.07;3.17;;;;;;;;;;7373593;19;20371;-75
2022/04/14 02:24:41;;;;;;;10.70;3.30;;;;;;;;;;7370247;19;20379;-75
2022/04/14 02:27:10;;;;;;;4.87;3.80;;;;;;;;;;7372926;19;20419;-75
2022/04/14 02:29:43;;;;;;;7.70;3.30;;;;;;;;;;7375293;19;21189;-76
2022/04/14 02:32:16;;;;;;;10.10;3.90;;;;;;;;;;7372233;19;20411;-76
2022/04/14 02:34:48;;;;;;;13.97;4.23;;;;;;;;;;7369972;19;20403;-75
2022/04/14 02:37:18;;;;;;;5.13;3.43;;;;;;;;;;7371106;19;20408;-77
2022/04/14 02:39:52;;;;;;;3.43;3.13;;;;;;;;;;7375354;19;20396;-75
2022/04/14 02:42:22;;;;;;;11.10;3.60;;;;;;;;;;7371001;19;20408;-76
2022/04/14 02:44:53;;;;;;;7.50;3.20;;;;;;;;;;7375369;19;20369;-75
2022/04/14 02:47:29;;;;;;;5.90;3.33;;;;;;;;;;7364776;19;20407;-77
2022/04/14 02:50:04;;;;;;;6.53;3.40;;;;;;;;;;7370099;19;20407;-76
2022/04/14 02:52:33;;;;;;;8.97;3.67;;;;;;;;;;7371739;19;21200;-76
2022/04/14 02:55:06;;;;;;;5.23;3.97;;;;;;;;;;7372556;19;20932;-76
2022/04/14 02:57:35;;;;;;;4.37;3.70;;;;;;;;;;7367997;19;20408;-76
2022/04/14 03:00:11;;;;;;;6.47;3.97;;;;;;;;;;7369692;19;20417;-75
2022/04/14 03:02:44;;;;;;;12.10;5.03;;;;;;;;;;7370374;19;20781;-75
2022/04/14 03:05:16;;;;;;;7.50;4.20;;;;;;;;;;7372185;19;20412;-76
2022/04/14 03:07:46;;;;;;;6.30;3.57;;;;;;;;;;7369781;19;20380;-75
2022/04/14 03:10:21;;;;;;;7.40;3.73;;;;;;;;;;7371759;19;21584;-79
2022/04/14 03:12:53;;;;;;;5.47;4.07;;;;;;;;;;7371802;19;20410;-79
2022/04/14 03:15:22;;;;;;;6.10;4.10;;;;;;;;;;7369596;19;20503;-79
2022/04/14 03:17:54;;;;;;;7.00;4.00;;;;;;;;;;7371973;19;20400;-79
2022/04/14 03:20:28;;;;;;;8.07;5.10;;;;;;;;;;7372580;19;20473;-79
2022/04/14 03:23:00;;;;;;;10.57;4.53;;;;;;;;;;7374581;19;20419;-79
2022/04/14 03:25:35;;;;;;;13.43;5.67;;;;;;;;;;7376054;19;21289;-80
2022/04/14 03:28:05;;;;;;;8.23;4.53;;;;;;;;;;7370776;19;20448;-80
2022/04/14 03:30:36;;;;;;;8.40;4.47;;;;;;;;;;7373195;19;20464;-79
2022/04/14 03:33:06;;;;;;;5.50;4.37;;;;;;;;;;7370042;19;20432;-79
2022/04/14 03:35:36;;;;;;;7.53;4.80;;;;;;;;;;7374662;19;20380;-78
2022/04/14 03:38:05;;;;;;;8.67;5.00;;;;;;;;;;7373969;19;20456;-80
2022/04/14 03:40:37;;;;;;;8.57;5.60;;;;;;;;;;7370481;19;20420;-75
2022/04/14 03:43:09;;;;;;;7.57;5.37;;;;;;;;;;7367312;19;20414;-75
2022/04/14 03:45:41;;;;;;;9.70;5.10;;;;;;;;;;7371207;19;20913;-75
2022/04/14 03:48:11;;;;;;;7.93;4.63;;;;;;;;;;7370193;19;20391;-75
2022/04/14 03:50:41;;;;;;;9.23;6.17;;;;;;;;;;7369268;19;20932;-74
2022/04/14 03:53:10;;;;;;;7.60;5.73;;;;;;;;;;7367878;19;20404;-76
2022/04/14 03:55:46;;;;;;;22.67;6.90;;;;;;;;;;7368101;19;20409;-75
2022/04/14 03:58:15;;;;;;;8.37;6.47;;;;;;;;;;7369729;19;20400;-75
2022/04/14 04:00:47;;;;;;;10.10;7.43;;;;;;;;;;7369303;19;20393;-75
2022/04/14 04:03:19;;;;;;;14.30;8.10;;;;;;;;;;7368222;19;20424;-75
2022/04/14 04:05:51;;;;;;;18.90;8.10;;;;;;;;;;7370287;19;20459;-76
2022/04/14 04:08:22;;;;;;;11.33;8.37;;;;;;;;;;7367989;19;20376;-75
2022/04/14 04:10:58;;;;;;;16.60;8.87;;;;;;;;;;7372372;19;20429;-75
2022/04/14 04:13:32;;;;;;;12.27;8.50;;;;;;;;;;7381970;19;20383;-74
2022/04/14 04:16:07;;;;;;;10.63;8.60;;;;;;;;;;7400111;19;20439;-74
2022/04/14 04:18:39;;;;;;;14.20;8.70;;;;;;;;;;7402728;19;20441;-74
2022/04/14 04:21:11;;;;;;;12.53;8.20;;;;;;;;;;7408545;19;20380;-75
2022/04/14 04:23:45;;;;;;;12.40;8.20;;;;;;;;;;7405949;19;20409;-74
2022/04/14 04:26:36;;;;;;;12.93;9.07;;;;;;;;;;7408542;19;20411;-74
2022/04/14 04:29:11;;;;;;;18.90;10.03;;;;;;;;;;7403851;19;20404;-74
2022/04/14 04:31:42;;;;;;;11.80;9.00;;;;;;;;;;7397764;19;21332;-73
2022/04/14 04:34:12;;;;;;;20.57;11.77;;;;;;;;;;7395314;19;20416;-75
2022/04/14 04:37:09;;;;;;;13.23;10.67;;;;;;;;;;7391129;19;20510;-75
2022/04/14 04:39:41;;;;;;;17.57;11.23;;;;;;;;;;7398156;19;20376;-74
2022/04/14 04:42:13;;;;;;;28.00;11.67;;;;;;;;;;7401527;19;20380;-75
2022/04/14 04:44:43;;;;;;;19.70;12.53;;;;;;;;;;7390415;19;20404;-75
2022/04/14 04:47:20;;;;;;;21.57;14.23;;;;;;;;;;7392640;19;20902;-73
2022/04/14 04:49:51;;;;;;;18.10;12.73;;;;;;;;;;7386438;19;20514;-75
2022/04/14 04:52:24;;;;;;;19.00;13.00;;;;;;;;;;7369384;19;20395;-71
2022/04/14 04:54:54;;;;;;;17.07;12.60;;;;;;;;;;7371900;19;20369;-71
2022/04/14 04:57:28;;;;;;;25.37;12.40;;;;;;;;;;7368850;19;20408;-71
2022/04/14 04:59:57;;;;;;;20.60;13.60;;;;;;;;;;7370046;19;20382;-71
2022/04/14 05:02:32;;;;;;;21.13;13.30;;;;;;;;;;7363887;19;20427;-72
2022/04/14 05:05:04;;;;;;;19.90;12.37;;;;;;;;;;7375334;19;20432;-74
2022/04/14 05:07:33;;;;;;;17.10;12.27;;;;;;;;;;7373698;19;20428;-73
2022/04/14 05:10:08;;;;;;;18.17;12.50;;;;;;;;;;7373233;19;20430;-76
2022/04/14 05:13:12;;;;;;;19.50;12.80;;;;;;;;;;7371997;19;20420;-76
2022/04/14 05:15:47;;;;;;;20.40;12.73;;;;;;;;;;7372847;19;20411;-76
2022/04/14 05:18:17;;;;;;;24.37;13.97;;;;;;;;;;7371270;19;20368;-74
2022/04/14 05:20:46;;;;;;;20.60;12.37;;;;;;;;;;7366900;19;20456;-74
2022/04/14 05:23:18;;;;;;;24.93;12.07;;;;;;;;;;7375379;19;20446;-74
2022/04/14 05:25:48;;;;;;;18.00;13.50;;;;;;;;;;7375710;19;20422;-73
2022/04/14 05:28:20;;;;;;;27.03;17.00;;;;;;;;;;7372006;19;20499;-74
2022/04/14 05:30:50;;;;;;;23.67;15.70;;;;;;;;;;7373789;19;20420;-73
2022/04/14 05:33:24;;;;;;;22.83;15.10;;;;;;;;;;7376857;19;20389;-74
2022/04/14 05:35:54;;;;;;;24.73;15.33;;;;;;;;;;7376865;19;20971;-73
2022/04/14 05:38:24;;;;;;;21.90;14.47;;;;;;;;;;7377558;19;21052;-73
2022/04/14 05:40:56;;;;;;;20.10;15.03;;;;;;;;;;7377257;19;20376;-73
2022/04/14 05:43:29;;;;;;;22.60;15.90;;;;;;;;;;7376759;19;20413;-73
2022/04/14 05:46:03;;;;;;;28.33;15.37;;;;;;;;;;7376237;19;20865;-73
2022/04/14 05:48:33;;;;;;;29.13;16.73;;;;;;;;;;7378377;19;20412;-73
2022/04/14 05:51:04;;;;;;;29.27;16.70;;;;;;;;;;7378029;19;20487;-73
2022/04/14 05:53:36;;;;;;;20.57;14.90;;;;;;;;;;7378730;19;20413;-73
2022/04/14 05:56:13;;;;;;;27.27;16.63;;;;;;;;;;7373603;19;20375;-73
2022/04/14 05:58:47;;;;;;;22.77;15.60;;;;;;;;;;7374368;19;20393;-73
2022/04/14 06:01:19;;;;;;;24.30;16.03;;;;;;;;;;7372266;19;20416;-74
2022/04/14 06:03:49;;;;;;;23.67;17.10;;;;;;;;;;7370589;19;20453;-74
2022/04/14 06:06:19;;;;;;;25.57;14.57;;;;;;;;;;7374600;19;20397;-74
2022/04/14 06:08:50;;;;;;;22.27;17.13;;;;;;;;;;7375013;19;21454;-73
2022/04/14 06:11:22;;;;;;;29.30;17.87;;;;;;;;;;7373494;19;21071;-73
2022/04/14 06:13:54;;;;;;;33.53;19.77;;;;;;;;;;7373042;19;20376;-72
2022/04/14 06:16:26;;;;;;;30.53;20.93;;;;;;;;;;7371123;19;20385;-73
2022/04/14 06:18:58;;;;;;;32.67;20.97;;;;;;;;;;7374344;19;20982;-75
2022/04/14 06:21:28;;;;;;;28.83;19.50;;;;;;;;;;7373528;19;20364;-75
2022/04/14 06:23:57;;;;;;;27.10;20.93;;;;;;;;;;7373580;19;20991;-72
2022/04/14 06:26:31;;;;;;;32.70;20.07;;;;;;;;;;7373205;19;21165;-74
2022/04/14 06:29:06;;;;;;;30.80;19.40;;;;;;;;;;7372124;19;20411;-73
2022/04/14 06:31:35;;;;;;;25.70;19.33;;;;;;;;;;7371112;19;20543;-73
2022/04/14 06:34:10;;;;;;;25.70;18.13;;;;;;;;;;7375312;19;20785;-73
2022/04/14 06:36:45;;;;;;;30.17;19.23;;;;;;;;;;7374357;19;20408;-73
2022/04/14 06:39:35;;;;;;;28.50;20.70;;;;;;;;;;7375544;19;20499;-73
2022/04/14 06:42:05;;;;;;;27.50;19.63;;;;;;;;;;7375621;19;20479;-73
2022/04/14 06:44:37;;;;;;;30.53;18.50;;;;;;;;;;7374949;19;20673;-73
2022/04/14 06:47:09;;;;;;;29.23;19.50;;;;;;;;;;7376379;19;20419;-73
2022/04/14 06:49:41;;;;;;;25.00;17.30;;;;;;;;;;7372585;19;22549;-74
2022/04/14 06:52:12;;;;;;;23.27;17.53;;;;;;;;;;7372661;19;20404;-71
2022/04/14 06:54:44;;;;;;;23.00;17.27;;;;;;;;;;7377180;19;20403;-72
2022/04/14 06:57:14;;;;;;;26.50;17.77;;;;;;;;;;7376575;19;20415;-72
2022/04/14 06:59:48;;;;;;;22.47;17.70;;;;;;;;;;7372672;19;20380;-74
2022/04/14 07:02:20;;;;;;;22.90;16.00;;;;;;;;;;7372353;19;20411;-74
2022/04/14 07:04:53;;;;;;;22.80;15.80;;;;;;;;;;7375256;19;20365;-73
2022/04/14 07:07:22;;;;;;;21.53;16.30;;;;;;;;;;7376460;19;20413;-72
2022/04/14 07:09:56;;;;;;;22.97;15.20;;;;;;;;;;7367985;19;20407;-72
2022/04/14 07:12:28;;;;;;;28.03;17.33;;;;;;;;;;7375557;19;20387;-72
2022/04/14 07:15:05;;;;;;;19.87;15.70;;;;;;;;;;7366589;19;20419;-73
2022/04/14 07:17:40;;;;;;;22.33;15.40;;;;;;;;;;7374729;19;20390;-73
2022/04/14 07:20:10;;;;;;;21.07;18.10;;;;;;;;;;7373517;19;20416;-74
2022/04/14 07:22:47;;;;;;;17.43;14.70;;;;;;;;;;7374052;19;20438;-73
2022/04/14 07:25:19;;;;;;;23.60;15.13;;;;;;;;;;7369182;19;20382;-73
2022/04/14 07:27:48;;;;;;;24.20;16.33;;;;;;;;;;7370706;19;20381;-73
2022/04/14 07:30:26;;;;;;;19.43;15.90;;;;;;;;;;7370874;19;20423;-73
2022/04/14 07:32:58;;;;;;;20.00;16.10;;;;;;;;;;7372243;19;20375;-74
2022/04/14 07:35:33;;;;;;;21.30;15.20;;;;;;;;;;7367795;19;20443;-73
2022/04/14 07:38:05;;;;;;;21.60;15.40;;;;;;;;;;7371339;19;21070;-73
2022/04/14 07:40:34;;;;;;;18.27;13.37;;;;;;;;;;7373664;19;20376;-74
2022/04/14 07:43:06;;;;;;;19.70;14.37;;;;;;;;;;7373044;19;20716;-74
2022/04/14 07:45:38;;;;;;;15.90;13.40;;;;;;;;;;7373776;19;20407;-74
2022/04/14 07:48:10;;;;;;;19.90;14.37;;;;;;;;;;7380720;19;20407;-74
2022/04/14 07:50:45;;;;;;;19.93;14.67;;;;;;;;;;7378868;19;20946;-73
2022/04/14 07:53:17;;;;;;;18.10;13.90;;;;;;;;;;7378076;19;20423;-74
2022/04/14 07:55:49;;;;;;;17.53;13.40;;;;;;;;;;7381852;19;20383;-73
2022/04/14 07:58:20;;;;;;;16.10;13.53;;;;;;;;;;7379748;19;20371;-73
2022/04/14 08:00:57;;;;;;;13.67;12.00;;;;;;;;;;7382276;19;20383;-73
2022/04/14 08:03:27;;;;;;;14.73;12.90;;;;;;;;;;7384375;19;20388;-73
2022/04/14 08:05:56;;;;;;;13.53;11.67;;;;;;;;;;7380998;19;20451;-73
2022/04/14 08:08:28;;;;;;;18.43;13.70;;;;;;;;;;7387196;19;20364;-74
2022/04/14 08:11:03;;;;;;;16.17;12.27;;;;;;;;;;7383763;19;20360;-73
2022/04/14 08:13:36;;;;;;;19.60;13.70;;;;;;;;;;7380972;19;20449;-74
2022/04/14 08:16:09;;;;;;;21.80;14.50;;;;;;;;;;7379070;19;20396;-73
2022/04/14 08:18:41;;;;;;;13.40;11.37;;;;;;;;;;7381335;19;20459;-75
2022/04/14 08:21:13;;;;;;;14.33;11.73;;;;;;;;;;7381959;19;20475;-74
2022/04/14 08:23:45;;;;;;;19.50;12.60;;;;;;;;;;7381334;19;20372;-74
2022/04/14 08:26:21;;;;;;;15.90;12.80;;;;;;;;;;7379014;19;20929;-74
2022/04/14 08:28:53;;;;;;;20.67;13.00;;;;;;;;;;7377297;19;20379;-75
2022/04/14 08:31:30;;;;;;;16.27;11.40;;;;;;;;;;7381757;19;20462;-79
2022/04/14 08:34:02;;;;;;;19.57;12.73;;;;;;;;;;7381725;19;20379;-78
2022/04/14 08:36:34;;;;;;;15.80;13.33;;;;;;;;;;7381576;19;20378;-77
2022/04/14 08:39:05;;;;;;;15.73;11.63;;;;;;;;;;7377570;19;20372;-78
2022/04/14 08:41:37;;;;;;;13.87;12.47;;;;;;;;;;7379321;19;20404;-77
2022/04/14 08:44:10;;;;;;;15.40;12.53;;;;;;;;;;7377786;19;20720;-77
2022/04/14 08:46:43;;;;;;;13.83;12.10;;;;;;;;;;7374731;19;20376;-77
2022/04/14 08:49:19;;;;;;;15.40;13.80;;;;;;;;;;7379266;19;20426;-77
2022/04/14 08:51:52;;;;;;;14.90;12.23;;;;;;;;;;7379415;19;20964;-77
2022/04/14 08:54:24;;;;;;;14.60;11.77;;;;;;;;;;7381055;19;20387;-77
2022/04/14 08:56:58;;;;;;;13.77;11.73;;;;;;;;;;7377715;19;20939;-78
2022/04/14 08:59:30;;;;;;;11.97;10.60;;;;;;;;;;7378430;19;20407;-78
2022/04/14 09:02:07;;;;;;;12.93;10.77;;;;;;;;;;7377950;19;20404;-77
2022/04/14 09:04:40;;;;;;;13.87;11.30;;;;;;;;;;7381653;19;20401;-78
2022/04/14 09:07:15;;;;;;;13.80;12.40;;;;;;;;;;7382715;19;20418;-77
2022/04/14 09:09:44;;;;;;;15.70;11.87;;;;;;;;;;7380912;19;20377;-78
2022/04/14 09:12:15;;;;;;;11.87;10.67;;;;;;;;;;7379928;19;20384;-78
2022/04/14 09:14:44;;;;;;;12.37;11.10;;;;;;;;;;7378891;19;20999;-77
2022/04/14 09:17:17;;;;;;;12.77;11.50;;;;;;;;;;7380282;19;20949;-77
2022/04/14 09:19:52;;;;;;;14.13;12.00;;;;;;;;;;7380927;19;20388;-77
2022/04/14 09:22:21;;;;;;;14.70;11.40;;;;;;;;;;7380465;19;20384;-77
2022/04/14 09:24:54;;;;;;;12.20;10.53;;;;;;;;;;7373989;19;20372;-80
2022/04/14 09:27:28;;;;;;;15.07;9.93;;;;;;;;;;7376351;19;21057;-77
2022/04/14 09:29:59;;;;;;;11.80;10.60;;;;;;;;;;7374296;19;20404;-78
2022/04/14 09:32:32;;;;;;;11.80;10.60;;;;;;;;;;7377011;19;20434;-78
2022/04/14 09:35:06;;;;;;;14.70;10.23;;;;;;;;;;7379891;19;20480;-79
2022/04/14 09:37:36;;;;;;;10.70;9.60;;;;;;;;;;7381542;19;20376;-79
2022/04/14 09:40:10;;;;;;;12.17;10.20;;;;;;;;;;7380628;19;20376;-79
2022/04/14 09:42:40;;;;;;;13.17;11.00;;;;;;;;;;7374097;19;20512;-77
2022/04/14 09:45:22;;;;;;;11.83;10.63;;;;;;;;;;7378117;19;20426;-78
2022/04/14 09:47:58;;;;;;;12.60;11.23;;;;;;;;;;7372798;19;20379;-78
2022/04/14 09:50:31;;;;;;;11.03;9.90;;;;;;;;;;7360117;19;20412;-78
2022/04/14 09:53:02;;;;;;;11.90;10.80;;;;;;;;;;7367306;19;20914;-78
2022/04/14 09:55:34;;;;;;;9.80;8.73;;;;;;;;;;7375024;19;21267;-77
2022/04/14 09:58:12;;;;;;;11.03;9.97;;;;;;;;;;7373738;19;20384;-78
2022/04/14 10:00:45;;;;;;;11.77;9.83;;;;;;;;;;7371639;19;20380;-79
2022/04/14 10:03:19;;;;;;;14.80;13.30;;;;;;;;;;7374699;19;20499;-78
2022/04/14 10:05:49;;;;;;;11.80;10.60;;;;;;;;;;7374779;19;20396;-78
2022/04/14 10:08:24;;;;;;;11.30;10.20;;;;;;;;;;7358792;19;20380;-77
2022/04/14 10:11:07;;;;;;;11.50;9.17;;;;;;;;;;7373219;19;20408;-75
2022/04/14 10:13:36;;;;;;;14.53;12.67;;;;;;;;;;7356200;19;20516;-75
2022/04/14 10:16:07;;;;;;;11.83;10.50;;;;;;;;;;7367324;19;20381;-75
2022/04/14 10:18:41;;;;;;;10.90;9.80;;;;;;;;;;7365113;19;20396;-75
2022/04/14 10:21:14;;;;;;;13.67;12.27;;;;;;;;;;7364745;19;20942;-76
2022/04/14 10:23:44;;;;;;;12.23;11.03;;;;;;;;;;7364952;19;20396;-76
2022/04/14 10:26:16;;;;;;;12.43;11.13;;;;;;;;;;7362977;19;21438;-75
2022/04/14 10:28:49;;;;;;;10.57;9.33;;;;;;;;;;7360127;19;20423;-75
2022/04/14 10:31:20;;;;;;;12.10;10.90;;;;;;;;;;7356606;19;20420;-76
2022/04/14 10:33:52;;;;;;;11.33;9.83;;;;;;;;;;7351128;19;20860;-76
2022/04/14 10:36:24;;;;;;;11.27;10.10;;;;;;;;;;7341987;19;20951;-76
2022/04/14 10:38:59;;;;;;;11.90;10.67;;;;;;;;;;7352445;19;20419;-76
2022/04/14 10:41:39;;;;;;;10.57;8.70;;;;;;;;;;7356009;19;20421;-76
2022/04/14 10:44:10;;;;;;;10.77;9.43;;;;;;;;;;7346406;19;20392;-78
2022/04/14 10:46:48;;;;;;;14.63;9.53;;;;;;;;;;7364231;19;20407;-77
2022/04/14 10:49:27;;;;;;;11.93;9.97;;;;;;;;;;7363994;19;20400;-78
2022/04/14 10:52:19;;;;;;;10.90;9.40;;;;;;;;;;7364296;19;21555;-78
2022/04/14 10:54:58;;;;;;;11.30;9.00;;;;;;;;;;7369550;19;20400;-77
2022/04/14 10:57:41;;;;;;;10.37;9.23;;;;;;;;;;7374497;19;20376;-78
2022/04/14 11:00:27;;;;;;;9.23;8.10;;;;;;;;;;7370493;19;20431;-74
2022/04/14 11:03:07;;;;;;;11.67;10.67;;;;;;;;;;7369916;19;21082;-76
2022/04/14 11:05:43;;;;;;;9.37;8.43;;;;;;;;;;7372983;19;20420;-75
2022/04/14 11:08:27;;;;;;;16.23;10.77;;;;;;;;;;7375757;19;20432;-77
2022/04/14 11:11:12;;;;;;;14.20;11.37;;;;;;;;;;7371767;19;20731;-76
2022/04/14 11:13:57;;;;;;;9.43;8.37;;;;;;;;;;7379082;19;20463;-75
2022/04/14 11:16:41;;;;;;;9.17;8.27;;;;;;;;;;7362433;19;20400;-76
2022/04/14 11:19:27;;;;;;;9.00;8.07;;;;;;;;;;7368363;19;21260;-76
2022/04/14 11:22:08;;;;;;;9.50;7.77;;;;;;;;;;7368093;19;20380;-79
2022/04/14 11:24:42;;;;;;;10.73;8.93;;;;;;;;;;7365544;19;20408;-78
2022/04/14 11:27:15;;;;;;;10.03;8.50;;;;;;;;;;7357863;19;20980;-78
2022/04/14 11:29:45;;;;;;;8.07;7.23;;;;;;;;;;7361218;19;21674;-77
2022/04/14 11:32:16;;;;;;;9.70;8.00;;;;;;;;;;7366173;19;20449;-76
2022/04/14 11:34:46;;;;;;;9.87;8.67;;;;;;;;;;7365098;19;20384;-77
2022/04/14 11:37:30;;;;;;;9.00;7.97;;;;;;;;;;7366119;19;20419;-79
2022/04/14 11:40:15;;;;;;;9.83;8.80;;;;;;;;;;7363154;19;20407;-78
2022/04/14 11:42:50;;;;;;;10.63;8.80;;;;;;;;;;7362933;19;20772;-78
2022/04/14 11:45:26;;;;;;;8.27;7.47;;;;;;;;;;7369274;19;20424;-80
2022/04/14 11:48:03;;;;;;;10.50;9.37;;;;;;;;;;7367243;19;20827;-88
2022/04/14 11:50:34;;;;;;;10.50;9.40;;;;;;;;;;7363724;19;21062;-87
2022/04/14 11:53:04;;;;;;;10.23;8.90;;;;;;;;;;7367504;19;20420;-82
2022/04/14 11:55:37;;;;;;;10.77;7.70;;;;;;;;;;7373938;19;22581;-85
2022/04/14 11:58:13;;;;;;;11.33;8.30;;;;;;;;;;7371764;19;20396;-86
2022/04/14 12:00:46;;;;;;;12.63;10.17;;;;;;;;;;7367148;19;20395;-80
2022/04/14 12:03:15;;;;;;;12.73;9.40;;;;;;;;;;7363947;19;20408;-85
2022/04/14 12:05:52;;;;;;;12.03;8.87;;;;;;;;;;7361758;19;20918;-82
2022/04/14 12:08:24;;;;;;;11.70;10.50;;;;;;;;;;7366877;19;20520;-87
2022/04/14 12:10:56;;;;;;;10.33;7.47;;;;;;;;;;7368297;19;20944;-86
2022/04/14 12:13:28;;;;;;;10.83;9.37;;;;;;;;;;7367829;19;20487;-87
2022/04/14 12:16:04;;;;;;;10.00;8.83;;;;;;;;;;7360058;19;20407;-78
2022/04/14 12:18:39;;;;;;;14.83;13.20;;;;;;;;;;7360934;19;20428;-79
2022/04/14 12:21:20;;;;;;;13.37;8.20;;;;;;;;;;7356659;19;20436;-75
2022/04/14 12:23:50;;;;;;;9.50;8.23;;;;;;;;;;7353944;19;20419;-77
2022/04/14 12:26:24;;;;;;;8.03;7.03;;;;;;;;;;7354251;19;20442;-79
2022/04/14 12:28:56;;;;;;;9.40;8.50;;;;;;;;;;7367234;19;20762;-76
2022/04/14 12:31:29;;;;;;;11.47;9.17;;;;;;;;;;7350825;19;20535;-77
2022/04/14 12:34:01;;;;;;;9.93;8.93;;;;;;;;;;7364613;19;21127;-74
2022/04/14 12:36:38;;;;;;;9.77;7.33;;;;;;;;;;7364307;19;25487;-74
2022/04/14 12:39:09;;;;;;;10.33;8.60;;;;;;;;;;7358555;19;20958;-75
2022/04/14 12:41:39;;;;;;;12.73;9.33;;;;;;;;;;7367753;19;21235;-74
2022/04/14 12:44:12;;;;;;;14.00;10.10;;;;;;;;;;7363598;19;20408;-73
2022/04/14 12:46:46;;;;;;;7.53;6.80;;;;;;;;;;7362257;19;20415;-76
2022/04/14 12:49:21;;;;;;;11.53;8.77;;;;;;;;;;7363463;19;20387;-74
2022/04/14 12:51:57;;;;;;;9.80;8.47;;;;;;;;;;7364487;19;20420;-74
2022/04/14 12:54:27;;;;;;;9.73;8.87;;;;;;;;;;7352769;19;20485;-75
2022/04/14 12:57:01;;;;;;;8.80;7.63;;;;;;;;;;7364512;19;20427;-74
2022/04/14 12:59:38;;;;;;;9.77;7.47;;;;;;;;;;7375306;19;20415;-74
2022/04/14 13:02:11;;;;;;;8.67;7.70;;;;;;;;;;7369310;19;20412;-74
2022/04/14 13:04:45;;;;;;;10.53;8.00;;;;;;;;;;7373795;19;20493;-75
2022/04/14 13:07:20;;;;;;;11.73;10.50;;;;;;;;;;7372780;19;20440;-75
2022/04/14 13:10:00;;;;;;;11.07;9.90;;;;;;;;;;7378339;19;20443;-73
2022/04/14 13:12:41;;;;;;;10.30;9.30;;;;;;;;;;7380189;19;20384;-74
2022/04/14 13:15:17;;;;;;;10.13;9.13;;;;;;;;;;7374686;19;20405;-75
2022/04/14 13:17:51;;;;;;;12.43;7.97;;;;;;;;;;7352465;19;20560;-74
2022/04/14 13:20:26;;;;;;;8.13;6.50;;;;;;;;;;7376890;19;20960;-75
2022/04/14 13:22:56;;;;;;;9.30;8.27;;;;;;;;;;7365596;19;20413;-75
2022/04/14 13:25:28;;;;;;;12.43;11.00;;;;;;;;;;7369170;19;20415;-73
2022/04/14 13:28:00;;;;;;;12.57;11.37;;;;;;;;;;7374978;19;20407;-74
2022/04/14 13:30:34;;;;;;;13.47;11.60;;;;;;;;;;7364212;19;21078;-75
2022/04/14 13:33:05;;;;;;;11.67;10.67;;;;;;;;;;7374794;19;20525;-74
2022/04/14 13:35:35;;;;;;;13.97;12.33;;;;;;;;;;7362095;19;20419;-75
2022/04/14 13:38:05;;;;;;;13.23;11.63;;;;;;;;;;7382151;19;20506;-76
2022/04/14 13:40:35;;;;;;;15.73;11.97;;;;;;;;;;7391467;19;20424;-77
2022/04/14 13:43:04;;;;;;;16.93;12.23;;;;;;;;;;7377544;19;20392;-77
2022/04/14 13:45:39;;;;;;;14.23;12.23;;;;;;;;;;7373676;19;20399;-75
2022/04/14 13:48:11;;;;;;;18.83;13.77;;;;;;;;;;7375530;19;20411;-76
2022/04/14 13:50:45;;;;;;;16.30;12.50;;;;;;;;;;7381091;19;20773;-77
2022/04/14 13:53:16;;;;;;;15.80;10.00;;;;;;;;;;7382869;19;21215;-75
2022/04/14 13:55:47;;;;;;;13.07;11.73;;;;;;;;;;7367558;19;20987;-75
2022/04/14 13:58:21;;;;;;;12.93;11.23;;;;;;;;;;7375853;19;20435;-76
2022/04/14 14:00:55;;;;;;;14.87;11.17;;;;;;;;;;7377282;19;20404;-76
2022/04/14 14:03:29;;;;;;;16.10;13.07;;;;;;;;;;7374806;19;20411;-77
2022/04/14 14:06:00;;;;;;;15.80;13.93;;;;;;;;;;7376860;19;20404;-73
2022/04/14 14:08:31;;;;;;;15.73;12.50;;;;;;;;;;7379364;19;21173;-79
2022/04/14 14:11:05;;;;;;;13.63;12.17;;;;;;;;;;7379210;19;20381;-76
2022/04/14 14:13:34;;;;;;;14.03;12.57;;;;;;;;;;7373317;19;20416;-75
2022/04/14 14:16:07;;;;;;;15.93;13.20;;;;;;;;;;7370863;19;20372;-75
2022/04/14 14:18:39;;;;;;;20.07;12.27;;;;;;;;;;7381074;19;20364;-76
2022/04/14 14:21:11;;;;;;;14.07;12.43;;;;;;;;;;7373102;19;20379;-75
2022/04/14 14:24:01;;;;;;;14.80;13.30;;;;;;;;;;7358794;19;20425;-76
2022/04/14 14:26:31;;;;;;;12.67;10.13;;;;;;;;;;7359897;19;20404;-76
2022/04/14 14:29:03;;;;;;;17.37;13.53;;;;;;;;;;7360451;19;20440;-75
2022/04/14 14:31:38;;;;;;;16.00;14.33;;;;;;;;;;7369406;19;20470;-74
2022/04/14 14:34:11;;;;;;;14.93;11.93;;;;;;;;;;7364746;19;20388;-75
2022/04/14 14:36:40;;;;;;;13.40;11.47;;;;;;;;;;7366372;19;20501;-76
2022/04/14 14:39:11;;;;;;;13.37;11.97;;;;;;;;;;7359263;19;20404;-75
2022/04/14 14:41:43;;;;;;;14.00;11.90;;;;;;;;;;7358115;19;20419;-75
2022/04/14 14:44:12;;;;;;;14.93;12.40;;;;;;;;;;7373473;19;21186;-78
2022/04/14 14:46:47;;;;;;;13.20;11.80;;;;;;;;;;7368458;19;20404;-79
2022/04/14 14:49:17;;;;;;;16.93;11.80;;;;;;;;;;7366855;19;20423;-78
2022/04/14 14:51:46;;;;;;;14.50;11.70;;;;;;;;;;7370004;19;20400;-78
2022/04/14 14:54:18;;;;;;;16.23;11.50;;;;;;;;;;7372147;19;20386;-78
2022/04/14 14:56:48;;;;;;;14.97;11.40;;;;;;;;;;7374741;19;20380;-77
2022/04/14 14:59:23;;;;;;;18.77;13.87;;;;;;;;;;7369699;19;20415;-79
2022/04/14 15:01:58;;;;;;;15.80;12.87;;;;;;;;;;7375216;19;20400;-78